MSC Rania — 3EEB3 — position and weather

sailwx.info

Track history (hours):
 
Tides and Currents Weather Stations Pressure Air Temp Water Temp Dewpoint Dewpoint Depression Visibility Wind Speed Wind Dir Waves Ship Positions

MSC Rania

Last reported at 2015-May-22 11:20 UTC. Time now 2015-May-22 22:17 UTC.
Position N 34°35' E 122°58'.

Length 332 m; draft 10.6 m.

Type: Ship (hazmat cat A). MMSI: 371752000.

Date/timePositionNaut miles runAvg speedWind from/ knotsBaromVisibWave heightAir tempDewpointWater temp
2015-May-22 11:20N 34°35' E 122°58'2118.6
2015-May-22 10:10N 34°21' E 123°18'1218.6
2015-May-22 09:32N 34°14' E 123°30'1917.8
2015-May-22 08:27N 34°00' E 123°46'3515.5
2015-May-22 06:13N 33°28' E 124°01'1817.6
2015-May-22 05:13N 33°10' E 123°59'1217.5
2015-May-22 04:33N 32°58' E 123°59'1717.0
2015-May-22 03:33N 32°41' E 124°00'1716.5
2015-May-22 02:33N 32°25' E 124°01'3916.2
2015-May-22 00:07N 31°45' E 124°01'5916.0
2015-May-21 20:24N 30°47' E 123°51'9014.8
2015-May-21 14:19N 29°42' E 122°39'1114.0
2015-May-21 13:34N 29°42' E 122°26'1212.1
2015-May-21 12:32N 29°48' E 122°14'1212.1
2015-May-21 11:33N 29°55' E 122°03'1211.5
2015-May-21 10:33N 29°57' E 121°50'0 0.1
2015-May-21 09:21N 29°57' E 121°50'0 0.0
2015-May-21 08:30N 29°57' E 121°50'0 0.0
2015-May-21 06:27N 29°57' E 121°50'0 0.0
2015-May-21 03:27N 29°57' E 121°50'0 0.0
2015-May-21 02:26N 29°57' E 121°50'0 0.0
2015-May-21 01:20N 29°57' E 121°50'0 0.0
2015-May-21 00:26N 29°57' E 121°50'0 0.0
2015-May-20 23:20N 29°57' E 121°50'0 0.0
2015-May-20 22:32N 29°57' E 121°50'0 0.0
2015-May-20 21:20N 29°57' E 121°50'0 0.0
2015-May-20 20:32N 29°57' E 121°50'0 0.0
2015-May-20 19:32N 29°57' E 121°50'0 0.0
2015-May-20 18:23N 29°57' E 121°50'0 0.0
2015-May-20 17:05N 29°57' E 121°50'0 0.4
2015-May-20 16:33N 29°57' E 121°50'2 2.0
2015-May-20 15:33N 29°58' E 121°52'1110.8
2015-May-20 14:33N 29°56' E 122°04'1312.8
2015-May-20 13:33N 29°47' E 122°16'1110.8
2015-May-20 12:33N 29°43' E 122°27'1211.6
2015-May-20 11:33N 29°41' E 122°40'1313.2
2015-May-20 10:33N 29°37' E 122°55'1514.6
2015-May-20 09:33N 29°30' E 123°10'1914.8
2015-May-20 08:16N 29°21' E 123°29'36616.8
2015-May-19 10:30N 24°05' E 120°02'1819.4
2015-May-19 09:33N 23°49' E 119°54'5518.1
2015-May-19 06:32N 22°54' E 119°56'1616.5
2015-May-19 05:33N 22°40' E 119°49'  
2015-May-15 14:33N 01°15' E 104°00'86 2.1
2015-May-13 21:30N 01°43' E 102°39'1111.2
2015-May-13 20:30N 01°47' E 102°28'1212.6
2015-May-13 19:33N 01°52' E 102°18'1812.3
2015-May-13 18:08N 02°03' E 102°04'  
Track history (hours):
 
Tides and Currents Weather Stations Pressure Air Temp Water Temp Dewpoint Dewpoint Depression Visibility Wind Speed Wind Dir Waves Ship Positions

MSC Rania

Last reported at 2015-May-22 11:20 UTC. Time now 2015-May-22 22:17 UTC.
Position N 34°35' E 122°58'.

Length 332 m; draft 10.6 m.

Type: Ship (hazmat cat A). MMSI: 371752000.

Date/timePositionNaut miles runAvg speedWind from/ knotsBaromVisibWave heightAir tempDewpointWater temp
2015-May-22 11:20N 34°35' E 122°58'2118.6
2015-May-22 10:10N 34°21' E 123°18'1218.6
2015-May-22 09:32N 34°14' E 123°30'1917.8
2015-May-22 08:27N 34°00' E 123°46'3515.5
2015-May-22 06:13N 33°28' E 124°01'1817.6
2015-May-22 05:13N 33°10' E 123°59'1217.5
2015-May-22 04:33N 32°58' E 123°59'1717.0
2015-May-22 03:33N 32°41' E 124°00'1716.5
2015-May-22 02:33N 32°25' E 124°01'3916.2
2015-May-22 00:07N 31°45' E 124°01'5916.0
2015-May-21 20:24N 30°47' E 123°51'9014.8
2015-May-21 14:19N 29°42' E 122°39'1114.0
2015-May-21 13:34N 29°42' E 122°26'1212.1
2015-May-21 12:32N 29°48' E 122°14'1212.1
2015-May-21 11:33N 29°55' E 122°03'1211.5
2015-May-21 10:33N 29°57' E 121°50'0 0.1
2015-May-21 09:21N 29°57' E 121°50'0 0.0
2015-May-21 08:30N 29°57' E 121°50'0 0.0
2015-May-21 06:27N 29°57' E 121°50'0 0.0
2015-May-21 03:27N 29°57' E 121°50'0 0.0
2015-May-21 02:26N 29°57' E 121°50'0 0.0
2015-May-21 01:20N 29°57' E 121°50'0 0.0
2015-May-21 00:26N 29°57' E 121°50'0 0.0
2015-May-20 23:20N 29°57' E 121°50'0 0.0
2015-May-20 22:32N 29°57' E 121°50'0 0.0
2015-May-20 21:20N 29°57' E 121°50'0 0.0
2015-May-20 20:32N 29°57' E 121°50'0 0.0
2015-May-20 19:32N 29°57' E 121°50'0 0.0
2015-May-20 18:23N 29°57' E 121°50'0 0.0
2015-May-20 17:05N 29°57' E 121°50'0 0.4
2015-May-20 16:33N 29°57' E 121°50'2 2.0
2015-May-20 15:33N 29°58' E 121°52'1110.8
2015-May-20 14:33N 29°56' E 122°04'1312.8
2015-May-20 13:33N 29°47' E 122°16'1110.8
2015-May-20 12:33N 29°43' E 122°27'1211.6
2015-May-20 11:33N 29°41' E 122°40'1313.2
2015-May-20 10:33N 29°37' E 122°55'1514.6
2015-May-20 09:33N 29°30' E 123°10'1914.8
2015-May-20 08:16N 29°21' E 123°29'36616.8
2015-May-19 10:30N 24°05' E 120°02'1819.4
2015-May-19 09:33N 23°49' E 119°54'5518.1
2015-May-19 06:32N 22°54' E 119°56'1616.5
2015-May-19 05:33N 22°40' E 119°49'  
2015-May-15 14:33N 01°15' E 104°00'86 2.1
2015-May-13 21:30N 01°43' E 102°39'1111.2
2015-May-13 20:30N 01°47' E 102°28'1212.6
2015-May-13 19:33N 01°52' E 102°18'1812.3
2015-May-13 18:08N 02°03' E 102°04'  

Dump ship's entire track history